Open Full Screen Window  High Contrast Mode
Wind Gusting 00 knots
10
August 16, 2017 5:22 PM EDT
Weather Information
Wind Direction
  070 °
Wind Speed
  10 kt (12 mph)
Wind Gust
  00 kt (0 mph)
Altimeter
29.99 in
Visibility
10 SM
Temperature
27° C
81° F
Dewpoint
18° C
64° F
Humidity
58%
1hr Rain Fall
00.00 in.
24hr Rain Fall
00.00 in.
Sky Condition
Clear
VFR

METAR KIKW 162122Z AUTO 07010KT 10SM CLR 27/18 A2999 RMK AO2 T02670184

*Background is not an actual portrayal of the airport.